Uniontown, WA (99179)

6:56 PM PDT on September 04, 2015 (GMT -0700)
Town of Colton | | Change Station
CLOSE
Current Station
Personal Weather Station
Location: Colton, WA
Elevation: 2579 ft
Nearby Weather Stations

Elev 2579 ft 46.57 °N, 117.12 °W | Updated 1 minute ago

Overcast
Overcast
61.8 °F
Feels Like 61.8 °F
N
1.0
Wind Variable Wind from NNW
Gusts 3.0 mph

Today
High -- | Low -- °F
--% Chance of Precip.
Yesterday
High -- | Low -- °F
Precip. -- in
6:12 AM 7:21 PM
Waning Gibbous, 54% visible
Pressure 29.78 in
Visibility 10.0 miles
Clouds Few 5500 ft
Scattered Clouds 7000 ft
Mostly Cloudy 11000 ft
Dew Point 31 °F
Humidity 31%
Rainfall 0.00 in
Snow Depth Not available.
UV 0 out of 12
Pollen 7.20 out of 12
Air Quality Not available.
Flu Activity Not available.
METAR KLWS 050056Z 07010KT 10SM FEW055 SCT070 BKN110 21/00 A2978 RMK AO2 RAB35E51 SLP083 P0000 T02110000
Pressure 29.78 in
Visibility 10.0 miles
Clouds Few 5500 ft
Scattered Clouds 7000 ft
Mostly Cloudy 11000 ft
Dew Point 31 °F
Humidity 31%
Rainfall 0.00 in
Snow Depth Not available.
UV 0 out of 12
Pollen 7.20 out of 12
Air Quality Not available.
Flu Activity Not available.
METAR KLWS 050056Z 07010KT 10SM FEW055 SCT070 BKN110 21/00 A2978 RMK AO2 RAB35E51 SLP083 P0000 T02110000

10-Day Weather Forecast

×

Almanac

Astronomy

Sep. 04, 2015 Rise Set
Actual Time
Civil Twilight
Nautical Twilight
Astronomical Twilight
Moon
Length of Visible Light
Length of Day
Tomorrow will be .
, % of the Moon is Illuminated

Today's Extremes

State Highs State Lows

Community

WunderPhotos

Upload Photos

1,852,375 photos uploaded!

WunderBlogs® & News

Nearby

Air Quality

  Air Quality AQ Index Pollutant
Not available.

Snow Depth

Station Depth Elevation

Earthquake Activity

City Distance Mag. Time & Date
Minimum magnitude displayed is 2.5.

Coastal Water Temperatures

Place Temperature

Stations

Nearby Weather Stations

Station Location Temp. Windchill Dew Point Humidity Wind Precip. Elev Updated Type